Time;durP1;ratioP1;P1;durP2;ratioP2;P2;SDS_P1;SDS_P2;PMS_P1;PMS_P2;Temp;Humidity;BMP_temperature;BMP_pressure;BME280_temperature;BME280_humidity;BME280_pressure;Samples;Min_cycle;Max_cycle;Signal;HPM_P1;HPM_P2
2022/01/17 00:00:24;;;;;;;2.97;1.98;;;1.30;1.40;;;1.82;100.00;96621.23;619191;226;31912;-78
2022/01/17 00:03:09;;;;;;;6.62;3.33;;;1.30;1.40;;;1.79;100.00;96616.16;647296;216;31696;-76
2022/01/17 00:05:51;;;;;;;4.65;2.40;;;1.40;1.40;;;1.77;100.00;96624.17;645713;212;31626;-74
2022/01/17 00:08:33;;;;;;;4.10;1.87;;;1.30;1.40;;;1.83;100.00;96613.94;648123;216;42412;-74
2022/01/17 00:11:20;;;;;;;4.15;2.40;;;1.30;1.40;;;1.84;100.00;96612.09;646738;216;31619;-78
2022/01/17 00:14:10;;;;;;;3.65;2.45;;;1.30;1.40;;;1.89;100.00;96618.42;647426;212;31697;-74
2022/01/17 00:16:52;;;;;;;5.25;3.60;;;1.30;1.40;;;1.88;100.00;96624.81;647914;216;31802;-76
2022/01/17 00:19:40;;;;;;;2.60;2.40;;;1.30;1.40;;;1.81;100.00;96615.95;641556;217;31572;-78
2022/01/17 00:22:20;;;;;;;4.18;2.97;;;1.30;1.40;;;1.83;100.00;96607.58;646618;216;32156;-74
2022/01/17 00:25:01;;;;;;;3.50;3.03;;;1.30;1.40;;;1.80;100.00;96610.44;644807;216;32231;-76
2022/01/17 00:27:43;;;;;;;2.15;2.00;;;1.30;1.40;;;1.86;100.00;96604.18;647165;216;31813;-76
2022/01/17 00:30:24;;;;;;;4.40;3.20;;;1.30;1.40;;;1.81;100.00;96603.17;619636;222;31938;-76
2022/01/17 00:35:54;;;;;;;3.83;2.75;;;1.40;1.40;;;1.84;100.00;96618.29;646544;212;32189;-76
2022/01/17 00:38:46;;;;;;;3.20;2.93;;;1.40;1.40;;;1.88;100.00;96609.80;648965;212;31698;-77
2022/01/17 00:41:34;;;;;;;6.72;2.70;;;1.40;1.40;;;2.00;100.00;96616.98;646176;216;31568;-77
2022/01/17 00:44:23;;;;;;;2.72;2.53;;;1.50;1.40;;;1.97;100.00;96617.94;621081;226;31929;-78
2022/01/17 00:47:09;;;;;;;4.90;2.80;;;1.50;1.40;;;1.96;100.00;96613.67;646379;216;31599;-73
2022/01/17 00:49:51;;;;;;;3.80;2.80;;;1.50;1.40;;;1.96;100.00;96620.13;646763;216;31563;-74
2022/01/17 00:52:32;;;;;;;2.85;2.08;;;1.60;1.40;;;1.98;100.00;96619.88;647130;216;31569;-75
2022/01/17 00:55:14;;;;;;;2.62;2.42;;;1.60;1.40;;;1.96;100.00;96620.45;645536;216;31568;-74
2022/01/17 00:57:59;;;;;;;4.22;3.00;;;1.60;1.40;;;2.01;100.00;96615.20;619133;222;32272;-74
2022/01/17 01:00:41;;;;;;;3.72;2.70;;;1.60;1.40;;;2.07;100.00;96615.47;647714;216;32697;-73
2022/01/17 01:03:22;;;;;;;4.40;2.67;;;1.70;1.40;;;2.07;100.00;96627.73;646459;216;32332;-76
2022/01/17 01:06:04;;;;;;;2.30;1.90;;;1.70;1.40;;;2.12;100.00;96631.81;642953;216;31973;-76
2022/01/17 01:08:52;;;;;;;2.20;2.10;;;1.70;1.40;;;2.10;100.00;96621.82;643697;216;31742;-77
2022/01/17 01:11:35;;;;;;;3.87;2.67;;;1.70;1.40;;;2.12;100.00;96623.53;646589;216;32254;-73
2022/01/17 01:14:17;;;;;;;3.33;2.15;;;1.70;1.40;;;2.21;100.00;96633.75;646577;212;31637;-74
2022/01/17 01:17:07;;;;;;;3.55;2.10;;;1.70;1.40;;;2.12;100.00;96629.56;647795;216;31689;-73
2022/01/17 01:19:42;;;;;;;2.55;1.95;;;1.70;1.40;;;2.15;100.00;96630.10;646797;212;33020;-76
2022/01/17 01:27:55;;;;;;;3.20;2.10;;;1.80;1.40;;;2.17;100.00;96644.05;646307;212;31718;-76
2022/01/17 01:30:40;;;;;;;2.03;1.92;;;1.70;1.40;;;2.20;100.00;96649.98;646973;212;31558;-73
2022/01/17 01:35:58;;;;;;;3.37;2.80;;;1.70;1.40;;;2.11;100.00;96645.59;647002;212;31581;-76
2022/01/17 01:38:41;;;;;;;4.35;2.50;;;1.70;1.40;;;2.20;100.00;96652.87;646691;212;31565;-77
2022/01/17 01:41:23;;;;;;;4.60;3.05;;;1.70;1.40;;;2.17;100.00;96656.20;645956;216;31879;-75
2022/01/17 01:44:05;;;;;;;1.65;1.10;;;1.70;1.40;;;2.15;100.00;96655.14;647374;216;31910;-73
2022/01/17 01:46:46;;;;;;;5.32;1.85;;;1.70;1.40;;;2.05;100.00;96644.02;647502;216;31538;-73
2022/01/17 01:49:31;;;;;;;3.37;2.47;;;1.70;1.40;;;2.10;100.00;96640.49;646717;214;31695;-73
2022/01/17 01:52:16;;;;;;;2.45;2.10;;;1.70;1.40;;;2.08;100.00;96635.61;647099;212;31907;-76
2022/01/17 01:54:57;;;;;;;3.35;2.12;;;1.70;1.40;;;2.10;100.00;96628.40;646229;212;31592;-76
2022/01/17 01:57:39;;;;;;;3.40;2.50;;;1.70;1.40;;;2.20;100.00;96600.70;647192;212;31698;-75
2022/01/17 02:00:21;;;;;;;1.50;1.40;;;1.80;1.40;;;2.16;100.00;96597.28;646188;216;32130;-76
2022/01/17 02:03:03;;;;;;;3.80;2.33;;;1.70;1.40;;;2.22;100.00;96597.30;647152;216;32143;-76
2022/01/17 02:05:46;;;;;;;1.98;1.58;;;1.70;1.40;;;2.16;100.00;96600.80;614842;226;32105;-77
2022/01/17 02:08:30;;;;;;;2.20;1.73;;;1.60;1.40;;;2.19;100.00;96599.72;620793;226;31897;-78
2022/01/17 02:11:11;;;;;;;1.90;1.60;;;1.70;1.40;;;2.25;100.00;96606.12;619626;222;32824;-77
2022/01/17 02:13:51;;;;;;;4.60;2.50;;;1.80;1.40;;;2.26;100.00;96596.22;646551;216;32074;-77
2022/01/17 02:16:41;;;;;;;4.20;1.70;;;1.70;1.40;;;2.29;100.00;96587.89;632522;221;32296;-75
2022/01/17 02:19:25;;;;;;;1.43;1.33;;;1.80;1.40;;;2.29;100.00;96593.36;647715;216;31545;-78
2022/01/17 02:22:11;;;;;;;2.95;2.00;;;1.80;1.40;;;2.23;100.00;96582.34;647038;216;31722;-76
2022/01/17 02:24:52;;;;;;;2.33;1.30;;;1.80;1.40;;;2.28;100.00;96592.25;646287;212;31670;-74
2022/01/17 02:27:37;;;;;;;2.30;1.73;;;1.80;1.40;;;2.28;100.00;96584.02;646886;216;31581;-76
2022/01/17 02:30:22;;;;;;;1.62;1.23;;;1.80;1.40;;;2.39;100.00;96589.50;645351;212;31613;-75
2022/01/17 02:33:00;;;;;;;3.20;1.65;;;1.90;1.40;;;2.27;100.00;96584.42;646681;212;31674;-74
2022/01/17 02:35:51;;;;;;;2.20;1.50;;;1.80;1.40;;;2.33;100.00;96590.35;647109;216;31585;-73
2022/01/17 02:38:33;;;;;;;2.87;2.22;;;1.90;1.40;;;2.26;100.00;96583.58;619734;222;31962;-76
2022/01/17 02:41:14;;;;;;;1.95;1.83;;;1.80;1.40;;;2.26;100.00;96591.23;618920;226;31898;-76
2022/01/17 02:43:56;;;;;;;1.95;1.70;;;1.80;1.40;;;2.27;100.00;96588.92;645439;216;42209;-73
2022/01/17 02:46:44;;;;;;;1.90;1.50;;;1.70;1.40;;;2.33;100.00;96592.08;648091;216;32557;-77
2022/01/17 02:49:27;;;;;;;1.40;1.30;;;1.80;1.40;;;2.35;100.00;96579.77;646420;216;31816;-77
2022/01/17 02:52:09;;;;;;;4.00;2.40;;;1.80;1.40;;;2.32;100.00;96587.60;646597;212;31651;-77
2022/01/17 02:54:53;;;;;;;1.67;1.58;;;1.80;1.40;;;2.27;100.00;96575.63;647431;216;42194;-78
2022/01/17 02:57:34;;;;;;;2.50;2.40;;;1.70;1.40;;;2.35;100.00;96567.23;647695;212;31606;-77
2022/01/17 03:00:17;;;;;;;3.85;1.90;;;1.80;1.40;;;2.30;100.00;96565.34;647542;216;31539;-77
2022/01/17 03:03:01;;;;;;;2.33;1.20;;;1.70;1.40;;;2.28;100.00;96559.56;647725;216;31558;-77
2022/01/17 03:05:43;;;;;;;2.00;1.77;;;1.80;1.40;;;2.20;100.00;96556.34;648025;212;31584;-76
2022/01/17 03:08:25;;;;;;;2.35;1.85;;;1.70;1.40;;;2.14;100.00;96551.32;647341;212;32635;-77
2022/01/17 03:11:13;;;;;;;2.08;1.87;;;1.70;1.40;;;2.16;100.00;96553.94;619470;226;42550;-76
2022/01/17 03:13:54;;;;;;;4.40;1.52;;;1.70;1.40;;;2.21;100.00;96548.25;648022;216;31853;-74
2022/01/17 03:16:41;;;;;;;1.87;1.77;;;1.80;1.40;;;2.16;100.00;96545.59;618966;222;32490;-73
2022/01/17 03:19:18;;;;;;;1.80;1.70;;;1.60;1.40;;;2.11;100.00;96544.11;630940;221;32135;-76
2022/01/17 03:22:05;;;;;;;2.50;2.00;;;1.60;1.40;;;2.10;100.00;96544.52;649196;216;31564;-77
2022/01/17 03:24:53;;;;;;;2.78;1.27;;;1.60;1.40;;;2.06;100.00;96560.83;646648;216;42157;-75
2022/01/17 03:27:37;;;;;;;3.42;1.73;;;1.60;1.40;;;2.07;100.00;96560.05;648272;216;31555;-77
2022/01/17 03:30:22;;;;;;;2.70;2.00;;;1.60;1.40;;;2.13;100.00;96574.98;630225;217;32817;-76
2022/01/17 03:35:52;;;;;;;1.73;1.62;;;1.60;1.40;;;2.00;100.00;96571.69;647762;216;31558;-73
2022/01/17 03:38:41;;;;;;;1.10;0.70;;;1.60;1.40;;;2.07;100.00;96580.97;646028;216;31940;-77
2022/01/17 03:44:04;;;;;;;3.40;1.87;;;1.70;1.40;;;2.07;100.00;96585.88;647747;216;31662;-77
2022/01/17 03:46:46;;;;;;;1.92;1.52;;;1.60;1.40;;;1.96;100.00;96586.50;619744;226;32159;-76
2022/01/17 03:49:34;;;;;;;3.60;1.80;;;1.50;1.40;;;1.98;100.00;96581.22;647329;216;31674;-76
2022/01/17 03:52:18;;;;;;;1.10;1.03;;;1.50;1.40;;;1.95;100.00;96569.52;646815;216;31534;-76
2022/01/17 03:54:59;;;;;;;2.12;1.40;;;1.40;1.40;;;1.82;100.00;96555.05;645854;216;31573;-75
2022/01/17 03:57:43;;;;;;;1.65;1.48;;;1.30;1.40;;;1.71;100.00;96533.34;646487;216;31556;-74
2022/01/17 04:00:29;;;;;;;2.50;1.37;;;1.20;1.40;;;1.76;100.00;96526.52;647565;216;31599;-77
2022/01/17 04:03:10;;;;;;;2.40;1.83;;;1.30;1.40;;;1.72;100.00;96526.84;647084;216;31600;-77
2022/01/17 04:05:58;;;;;;;1.33;1.20;;;1.30;1.40;;;1.78;100.00;96521.29;618070;226;44414;-77
2022/01/17 04:08:39;;;;;;;2.63;2.43;;;1.30;1.40;;;1.81;100.00;96532.67;647031;216;31570;-76
2022/01/17 04:11:21;;;;;;;1.40;1.30;;;1.30;1.40;;;1.77;100.00;96521.65;646205;212;42157;-76
2022/01/17 04:14:06;;;;;;;2.10;1.20;;;1.30;1.40;;;1.89;100.00;96523.52;646722;216;42729;-74
2022/01/17 04:16:47;;;;;;;1.77;1.63;;;1.40;1.40;;;1.90;100.00;96532.10;647278;216;32123;-76
2022/01/17 04:19:29;;;;;;;2.03;1.85;;;1.50;1.40;;;1.98;100.00;96553.66;646736;212;31671;-74
2022/01/17 04:22:11;;;;;;;2.05;1.25;;;1.50;1.40;;;2.04;100.00;96570.00;647486;216;32129;-76
2022/01/17 04:24:55;;;;;;;1.90;1.80;;;1.60;1.40;;;2.16;100.00;96580.16;648053;212;31519;-78
2022/01/17 04:27:43;;;;;;;3.37;2.10;;;1.60;1.40;;;2.16;100.00;96591.70;647020;216;31688;-74
2022/01/17 04:30:25;;;;;;;2.92;1.20;;;1.60;1.40;;;2.21;100.00;96597.03;646682;216;31578;-74
2022/01/17 04:35:53;;;;;;;2.20;1.50;;;1.60;1.40;;;2.09;100.00;96593.23;647980;216;31586;-77
2022/01/17 04:38:41;;;;;;;1.23;1.02;;;1.60;1.40;;;2.07;100.00;96585.50;646995;216;31566;-74
2022/01/17 04:41:37;;;;;;;3.78;1.40;;;1.60;1.40;;;2.03;100.00;96582.27;646447;216;32295;-77
2022/01/17 04:47:04;;;;;;;2.65;1.77;;;1.70;1.40;;;2.07;100.00;96589.03;646588;216;31569;-76
2022/01/17 04:49:47;;;;;;;2.50;1.48;;;1.70;1.40;;;2.17;100.00;96597.47;619311;223;42595;-77
2022/01/17 04:52:36;;;;;;;2.10;1.70;;;1.70;1.40;;;2.19;100.00;96605.17;647797;216;32154;-76
2022/01/17 04:55:17;;;;;;;2.10;1.00;;;1.70;1.40;;;2.24;100.00;96616.22;646614;212;32173;-73
2022/01/17 04:57:58;;;;;;;2.10;1.92;;;1.70;1.40;;;2.29;100.00;96622.09;647747;216;32328;-73
2022/01/17 05:00:46;;;;;;;2.22;1.62;;;1.80;1.40;;;2.30;100.00;96626.61;646413;216;31638;-73
2022/01/17 05:03:23;;;;;;;1.48;1.40;;;1.80;1.40;;;2.28;100.00;96636.65;645867;216;31930;-74
2022/01/17 05:06:10;;;;;;;4.28;1.95;;;1.80;1.40;;;2.39;100.00;96638.48;640697;216;31750;-77
2022/01/17 05:08:59;;;;;;;1.25;1.15;;;1.90;1.40;;;2.32;100.00;96626.23;647524;216;31624;-77
2022/01/17 05:11:41;;;;;;;1.70;1.50;;;1.90;1.40;;;2.34;100.00;96596.80;646096;212;31869;-74
2022/01/17 05:14:21;;;;;;;2.20;1.70;;;1.90;1.40;;;2.31;100.00;96594.04;618728;226;32042;-73
2022/01/17 05:17:21;;;;;;;1.30;1.20;;;1.90;1.40;;;2.32;100.00;96589.25;645546;212;31551;-74
2022/01/17 05:19:49;;;;;;;1.62;1.35;;;1.90;1.40;;;2.34;100.00;96589.89;647127;216;33005;-77
2022/01/17 05:22:32;;;;;;;2.55;2.12;;;1.90;1.40;;;2.32;100.00;96587.60;619525;226;31897;-77
2022/01/17 05:25:12;;;;;;;3.10;1.20;;;1.90;1.40;;;2.36;100.00;96580.10;648565;212;31646;-77
2022/01/17 05:28:00;;;;;;;1.60;0.98;;;2.00;1.40;;;2.43;100.00;96581.09;646578;212;31576;-75
2022/01/17 05:30:47;;;;;;;2.30;2.10;;;2.00;1.40;;;2.44;100.00;96578.54;647226;214;31512;-77
2022/01/17 05:35:51;;;;;;;2.97;2.22;;;2.00;1.40;;;2.47;100.00;96589.83;619550;226;31976;-77
2022/01/17 05:38:38;;;;;;;1.83;1.12;;;2.10;1.40;;;2.50;100.00;96588.56;646856;212;31665;-75
2022/01/17 05:41:20;;;;;;;1.30;1.23;;;2.10;1.40;;;2.45;100.00;96582.92;646598;216;31699;-76
2022/01/17 05:44:02;;;;;;;0.93;0.82;;;2.00;1.40;;;2.43;100.00;96593.07;645674;212;31795;-77
2022/01/17 05:46:49;;;;;;;2.35;2.15;;;2.00;1.40;;;2.49;100.00;96578.75;646970;216;31565;-77
2022/01/17 05:49:31;;;;;;;1.60;1.50;;;2.00;1.40;;;2.43;100.00;96582.33;647874;212;31869;-77
2022/01/17 05:52:19;;;;;;;2.33;1.52;;;2.10;1.40;;;2.59;100.00;96595.02;645207;216;31920;-76
2022/01/17 05:55:01;;;;;;;2.05;1.17;;;2.10;1.40;;;2.55;100.00;96609.27;619884;226;32024;-76
2022/01/17 05:57:47;;;;;;;1.27;1.15;;;2.10;1.40;;;2.52;100.00;96609.00;620552;226;31865;-77
2022/01/17 06:00:31;;;;;;;1.30;1.20;;;2.10;1.40;;;2.58;100.00;96618.45;646802;212;31551;-77
2022/01/17 06:03:19;;;;;;;4.95;1.70;;;2.20;1.40;;;2.59;100.00;96623.28;646395;216;31580;-73
2022/01/17 06:06:07;;;;;;;1.20;1.10;;;2.20;1.40;;;2.59;100.00;96626.72;640260;216;31735;-77
2022/01/17 06:08:54;;;;;;;2.63;1.20;;;2.20;1.40;;;2.64;100.00;96622.59;642489;216;31614;-76
2022/01/17 06:11:36;;;;;;;2.20;1.42;;;2.20;1.40;;;2.58;100.00;96620.21;646191;216;32002;-75
2022/01/17 06:16:58;;;;;;;1.30;1.20;;;2.20;1.40;;;2.57;100.00;96611.45;647057;216;31537;-77
2022/01/17 06:19:43;;;;;;;1.60;1.40;;;2.20;1.40;;;2.57;100.00;96603.65;647261;216;31578;-76
2022/01/17 06:22:25;;;;;;;2.10;1.20;;;2.20;1.40;;;2.68;100.00;96609.80;618568;226;31885;-77
2022/01/17 06:25:07;;;;;;;1.65;1.55;;;2.20;1.40;;;2.71;100.00;96611.13;622049;226;31883;-76
2022/01/17 06:27:54;;;;;;;2.00;1.90;;;2.20;1.40;;;2.68;100.00;96617.66;646392;216;31498;-76
2022/01/17 06:30:36;;;;;;;1.23;1.12;;;2.20;1.40;;;2.76;100.00;96625.13;646750;212;31550;-77
2022/01/17 06:36:00;;;;;;;1.80;1.70;;;2.30;1.40;;;2.77;100.00;96612.83;642494;216;31614;-76
2022/01/17 06:38:43;;;;;;;2.60;1.90;;;2.30;1.40;;;2.71;100.00;96618.83;647207;216;31561;-77
2022/01/17 06:41:26;;;;;;;2.40;1.70;;;2.20;1.40;;;2.74;100.00;96621.27;646359;212;38723;-78
2022/01/17 06:44:08;;;;;;;1.30;1.20;;;2.30;1.40;;;2.73;100.00;96614.34;620310;226;31886;-76
2022/01/17 06:46:50;;;;;;;2.10;1.60;;;2.30;1.40;;;2.74;100.00;96613.84;646337;216;42155;-77
2022/01/17 06:49:34;;;;;;;1.50;1.40;;;2.20;1.40;;;2.67;100.00;96618.56;647684;212;31552;-78
2022/01/17 06:52:23;;;;;;;1.90;1.20;;;2.20;1.40;;;2.71;100.00;96633.19;646271;216;31532;-77
2022/01/17 06:55:05;;;;;;;1.40;1.02;;;2.30;1.40;;;2.77;100.00;96637.83;646213;216;31584;-76
2022/01/17 06:57:52;;;;;;;1.80;0.70;;;2.30;1.40;;;2.74;100.00;96620.36;645894;212;31935;-77
2022/01/17 07:00:36;;;;;;;2.10;1.70;;;2.30;1.40;;;2.72;100.00;96623.25;646643;216;31960;-76
2022/01/17 07:03:21;;;;;;;1.20;0.73;;;2.20;1.40;;;2.74;100.00;96617.85;647375;212;31583;-74
2022/01/17 07:06:02;;;;;;;2.00;1.58;;;2.30;1.40;;;2.70;100.00;96617.56;643432;216;31843;-76
2022/01/17 07:08:45;;;;;;;1.85;1.45;;;2.30;1.40;;;2.81;100.00;96616.44;618135;226;32009;-76
2022/01/17 07:11:26;;;;;;;0.90;0.90;;;2.30;1.40;;;2.75;100.00;96633.13;646734;212;31685;-74
2022/01/17 07:14:09;;;;;;;1.73;1.62;;;2.30;1.40;;;2.79;100.00;96617.05;646345;216;31906;-74
2022/01/17 07:16:50;;;;;;;1.50;1.40;;;2.40;1.40;;;2.77;100.00;96632.15;618200;225;33435;-74
2022/01/17 07:19:32;;;;;;;1.52;0.88;;;2.30;1.40;;;2.79;100.00;96662.41;646244;212;31581;-76
2022/01/17 07:22:16;;;;;;;1.30;0.83;;;2.40;1.40;;;2.80;100.00;96685.82;619001;226;31943;-76
2022/01/17 07:25:00;;;;;;;0.80;0.80;;;2.40;1.40;;;2.85;100.00;96712.80;645441;216;31559;-76
2022/01/17 07:27:42;;;;;;;1.60;1.10;;;2.40;1.40;;;3.02;100.00;96725.48;619615;222;31977;-76
2022/01/17 07:30:24;;;;;;;2.00;1.20;;;2.50;1.40;;;3.00;100.00;96740.45;647985;212;31524;-79
2022/01/17 07:35:51;;;;;;;1.30;1.00;;;2.50;1.40;;;2.99;100.00;96776.95;647857;212;42151;-77
2022/01/17 07:38:34;;;;;;;2.60;1.52;;;2.50;1.40;;;3.07;100.00;96771.89;645444;216;31589;-76
2022/01/17 07:41:16;;;;;;;2.12;1.87;;;2.50;1.40;;;3.04;100.00;96766.41;646269;212;31563;-76
2022/01/17 07:43:57;;;;;;;2.42;1.85;;;2.50;1.40;;;2.98;100.00;96732.36;646405;212;31587;-76
2022/01/17 07:46:54;;;;;;;1.30;0.88;;;2.50;1.40;;;2.92;100.00;96727.98;646329;212;31512;-77
2022/01/17 07:49:34;;;;;;;2.80;1.50;;;2.50;1.40;;;2.94;100.00;96725.92;647694;212;31787;-74
2022/01/17 07:52:16;;;;;;;1.30;1.20;;;2.50;1.40;;;2.99;100.00;96721.67;646861;213;31523;-74
2022/01/17 07:54:58;;;;;;;1.70;1.10;;;2.50;1.40;;;2.85;100.00;96722.64;647447;216;32094;-76
2022/01/17 07:57:41;;;;;;;0.65;0.65;;;2.40;1.40;;;2.79;100.00;96726.34;615551;224;31928;-76
2022/01/17 08:00:25;;;;;;;1.80;1.00;;;2.40;1.40;;;2.80;100.00;96708.57;647167;212;32040;-73
2022/01/17 08:03:06;;;;;;;1.40;0.70;;;2.40;1.40;;;2.78;100.00;96697.95;646704;216;31657;-76
2022/01/17 08:05:47;;;;;;;1.20;1.08;;;2.40;1.40;;;2.85;100.00;96689.56;617523;226;32001;-77
2022/01/17 08:11:14;;;;;;;1.57;0.93;;;2.50;1.40;;;2.89;100.00;96724.12;646271;212;31575;-74
2022/01/17 08:13:58;;;;;;;1.65;1.55;;;2.50;1.40;;;2.86;100.00;96719.73;646432;212;31791;-75
2022/01/17 08:16:40;;;;;;;1.58;1.48;;;2.40;1.40;;;2.88;100.00;96732.53;646863;216;31556;-77
2022/01/17 08:19:25;;;;;;;2.00;1.67;;;2.40;1.40;;;2.87;100.00;96729.20;618300;226;31866;-77
2022/01/17 08:22:06;;;;;;;2.15;1.45;;;2.40;1.40;;;2.86;100.00;96730.18;647186;216;31539;-78
2022/01/17 08:24:50;;;;;;;0.80;0.80;;;2.40;1.40;;;2.88;100.00;96724.23;620697;222;32847;-78
2022/01/17 08:27:38;;;;;;;1.50;1.40;;;2.40;1.40;;;2.85;100.00;96718.95;645937;216;31699;-74
2022/01/17 08:30:19;;;;;;;2.20;1.20;;;2.50;1.40;;;2.94;100.00;96723.83;646718;212;42142;-76
2022/01/17 08:33:01;;;;;;;2.20;0.70;;;2.50;1.40;;;2.97;100.00;96728.61;646073;216;31917;-75
2022/01/17 08:35:50;;;;;;;1.95;1.85;;;2.60;1.40;;;3.01;100.00;96729.72;646386;212;32234;-77
2022/01/17 08:38:38;;;;;;;1.87;1.73;;;2.60;1.40;;;3.06;100.00;96740.03;647219;216;31559;-79
2022/01/17 08:41:20;;;;;;;0.73;0.73;;;2.60;1.40;;;3.10;100.00;96728.80;647332;216;32210;-79
2022/01/17 08:44:08;;;;;;;1.37;0.80;;;2.70;1.40;;;3.21;100.00;96719.74;645768;216;31676;-77
2022/01/17 08:46:49;;;;;;;2.00;1.90;;;2.80;1.40;;;3.26;100.00;96715.55;617807;226;46468;-77
2022/01/17 08:49:37;;;;;;;1.85;1.70;;;2.70;1.40;;;3.28;100.00;96722.72;620462;226;31898;-78
2022/01/17 08:52:21;;;;;;;1.80;1.10;;;2.80;1.40;;;3.31;100.00;96723.45;619911;222;42509;-74
2022/01/17 08:55:06;;;;;;;2.10;1.50;;;2.90;1.40;;;3.36;100.00;96731.70;646640;216;31588;-75
2022/01/17 08:57:47;;;;;;;1.50;0.90;;;3.00;1.40;;;3.40;100.00;96715.87;645145;212;32268;-74
2022/01/17 09:00:32;;;;;;;1.60;0.90;;;3.00;1.40;;;3.49;100.00;96728.04;620978;222;31888;-79
2022/01/17 09:03:16;;;;;;;1.60;1.50;;;3.10;1.40;;;3.48;100.00;96746.94;620050;226;31919;-77
2022/01/17 09:05:57;;;;;;;1.95;1.02;;;3.10;1.40;;;3.61;100.00;96746.92;618107;224;32022;-77
2022/01/17 09:08:40;;;;;;;1.85;0.98;;;3.10;1.40;;;3.78;100.00;96743.53;646346;212;42472;-77
2022/01/17 09:11:22;;;;;;;0.82;0.82;;;3.30;1.40;;;3.76;100.00;96716.98;618212;226;31937;-77
2022/01/17 09:14:03;;;;;;;3.97;1.40;;;3.30;1.40;;;3.72;100.00;96712.86;646203;216;31720;-74
2022/01/17 09:16:45;;;;;;;1.70;1.60;;;3.20;1.40;;;3.76;100.00;96709.58;646922;216;31853;-74
2022/01/17 09:19:27;;;;;;;2.50;1.67;;;3.40;1.40;;;3.94;100.00;96730.11;647336;212;33509;-76
2022/01/17 09:22:08;;;;;;;2.67;1.60;;;3.50;1.40;;;3.96;100.00;96746.84;647802;216;31584;-77
2022/01/17 09:24:56;;;;;;;2.08;1.98;;;3.50;1.40;;;3.99;100.00;96767.38;647988;216;31631;-79
2022/01/17 09:27:44;;;;;;;2.50;1.70;;;3.60;1.40;;;4.14;100.00;96769.69;646186;216;31704;-75
2022/01/17 09:30:25;;;;;;;1.50;1.20;;;3.60;1.40;;;4.13;100.00;96747.29;648044;216;31501;-74
2022/01/17 09:35:54;;;;;;;1.70;1.40;;;4.00;1.40;;;4.27;100.00;96769.31;646151;216;31650;-77
2022/01/17 09:38:42;;;;;;;2.40;2.20;;;3.70;1.40;;;4.36;100.00;96741.76;643843;216;31525;-79
2022/01/17 09:41:31;;;;;;;3.03;2.20;;;3.90;1.40;;;4.39;100.00;96745.20;619922;226;32064;-74
2022/01/17 09:44:11;;;;;;;1.42;1.33;;;4.10;1.40;;;4.71;100.00;96735.03;646788;212;31705;-76
2022/01/17 09:46:55;;;;;;;1.73;1.25;;;4.40;1.40;;;4.74;100.00;96741.58;619224;226;31998;-75
2022/01/17 09:49:42;;;;;;;1.40;1.30;;;4.30;1.40;;;4.55;100.00;96773.94;646317;216;31587;-74
2022/01/17 09:52:34;;;;;;;1.10;1.00;;;4.10;1.40;;;4.70;100.00;96775.02;646837;212;31577;-74
2022/01/17 09:55:20;;;;;;;2.70;2.50;;;4.20;1.40;;;4.58;100.00;96779.23;646651;212;31511;-78
2022/01/17 09:58:10;;;;;;;2.50;1.40;;;4.00;1.40;;;4.53;100.00;96790.40;645116;212;42170;-77
2022/01/17 10:00:51;;;;;;;1.35;1.08;;;4.00;1.40;;;4.48;100.00;96781.94;646723;212;31671;-75
2022/01/17 10:03:33;;;;;;;1.80;1.40;;;3.90;1.40;;;4.34;100.00;96789.97;646652;216;31576;-76
2022/01/17 10:06:18;;;;;;;0.88;0.85;;;3.90;1.40;;;4.36;100.00;96771.33;643512;212;31803;-76
2022/01/17 10:09:21;;;;;;;2.05;1.52;;;3.90;1.40;;;4.59;100.00;96767.27;646591;212;32140;-77
2022/01/17 10:12:09;;;;;;;1.80;0.70;;;4.10;1.40;;;4.59;100.00;96764.04;620306;226;31948;-79
2022/01/17 10:15:00;;;;;;;1.90;1.40;;;4.20;1.40;;;4.80;100.00;96739.34;645058;216;31804;-74
2022/01/17 10:17:56;;;;;;;1.65;1.55;;;5.20;1.40;;;5.24;100.00;96734.48;646217;216;32172;-77
2022/01/17 10:20:33;;;;;;;1.50;1.25;;;4.90;1.40;;;6.09;100.00;96721.56;646897;216;31521;-75
2022/01/17 10:23:16;;;;;;;1.90;1.70;;;6.00;1.40;;;5.98;100.00;96711.20;646707;216;31546;-77
2022/01/17 10:26:05;;;;;;;2.50;1.65;;;5.80;1.40;;;5.61;100.00;96708.44;619062;222;42583;-77
2022/01/17 10:35:58;;;;;;;2.08;1.15;;;5.50;1.40;;;6.32;100.00;96702.61;617082;226;31933;-79
2022/01/17 10:38:45;;;;;;;2.28;1.75;;;6.60;1.40;;;6.83;100.00;96710.20;645985;213;42170;-77
2022/01/17 10:41:32;;;;;;;1.42;1.05;;;6.00;1.40;;;5.92;100.00;96725.94;647342;212;31992;-77
2022/01/17 10:44:11;;;;;;;2.70;1.50;;;5.10;1.40;;;5.60;100.00;96732.16;645891;216;31613;-76
2022/01/17 10:46:53;;;;;;;2.28;1.55;;;4.80;1.40;;;5.06;100.00;96738.44;645908;216;31553;-77
2022/01/17 10:49:59;;;;;;;1.10;1.00;;;4.40;1.40;;;5.14;100.00;96721.84;647249;216;31527;-77
2022/01/17 10:52:43;;;;;;;1.50;0.70;;;4.40;1.40;;;5.23;100.00;96741.98;647941;212;31530;-79
2022/01/17 10:55:33;;;;;;;1.70;1.00;;;4.60;1.40;;;5.25;100.00;96737.30;646957;212;42720;-75
2022/01/17 10:58:20;;;;;;;1.40;1.20;;;4.80;1.40;;;5.25;100.00;96739.28;645798;216;31559;-78
2022/01/17 11:01:08;;;;;;;1.80;1.00;;;4.70;1.40;;;5.02;100.00;96742.41;645926;216;31554;-77
2022/01/17 11:03:48;;;;;;;1.10;1.00;;;4.40;1.40;;;4.89;100.00;96736.50;619596;226;31893;-74
2022/01/17 11:06:30;;;;;;;1.50;0.90;;;4.50;1.40;;;5.34;100.00;96733.81;642223;216;31653;-74
2022/01/17 11:09:11;;;;;;;1.65;1.25;;;5.00;1.40;;;5.25;100.00;96752.14;646918;212;31825;-75
2022/01/17 11:11:53;;;;;;;2.20;1.23;;;4.90;1.40;;;5.59;100.00;96745.04;619454;225;32165;-77
2022/01/17 11:17:19;;;;;;;1.62;1.20;;;4.90;1.40;;;5.42;100.00;96744.65;618322;222;31856;-77
2022/01/17 11:20:07;;;;;;;1.80;1.58;;;4.90;1.40;;;5.27;100.00;96750.40;645856;216;32329;-75
2022/01/17 11:22:47;;;;;;;1.10;0.98;;;4.80;1.40;;;5.58;100.00;96748.53;647240;216;31560;-74
2022/01/17 11:25:30;;;;;;;1.90;1.30;;;5.20;1.40;;;7.23;100.00;96743.78;646964;216;42167;-77
2022/01/17 11:28:11;;;;;;;1.05;0.93;;;7.50;1.40;;;7.20;100.00;96725.94;645661;216;31869;-75
2022/01/17 11:30:53;;;;;;;2.00;1.70;;;6.50;1.40;;;7.69;100.00;96724.23;647466;216;32087;-74
2022/01/17 11:35:53;;;;;;;1.50;1.40;;;5.80;1.40;;;6.64;100.00;96749.05;619613;226;42718;-77
2022/01/17 11:38:36;;;;;;;1.27;1.00;;;6.40;1.40;;;7.43;100.00;96720.41;618197;226;31899;-77
2022/01/17 11:41:21;;;;;;;1.90;1.10;;;7.80;1.40;;;7.35;100.00;96725.33;646208;215;31901;-75
2022/01/17 11:44:04;;;;;;;1.62;1.00;;;7.70;1.40;;;7.82;100.00;96729.47;646008;215;31583;-75
2022/01/17 11:46:51;;;;;;;2.27;1.50;;;7.90;1.40;;;8.52;100.00;96690.59;618542;225;31928;-76
2022/01/17 11:49:35;;;;;;;1.57;1.47;;;8.70;1.40;;;8.84;100.00;96693.00;645212;216;31616;-74
2022/01/17 11:52:14;;;;;;;1.80;1.20;;;7.30;1.40;;;7.61;100.00;96696.33;647335;216;31659;-75
2022/01/17 11:54:54;;;;;;;1.50;1.33;;;6.70;1.40;;;7.11;100.00;96720.27;647080;212;32410;-74
2022/01/17 11:57:43;;;;;;;1.83;1.27;;;5.60;1.40;;;6.10;100.00;96735.03;648255;216;31684;-78
2022/01/17 12:00:30;;;;;;;1.23;1.13;;;5.10;1.40;;;6.01;100.00;96741.89;632429;222;31757;-79
2022/01/17 12:03:18;;;;;;;1.90;1.10;;;5.20;1.40;;;5.82;100.00;96745.31;646431;216;31538;-74
2022/01/17 12:06:02;;;;;;;2.13;1.10;;;5.20;1.40;;;6.20;100.00;96734.69;643981;216;31695;-77
2022/01/17 12:08:45;;;;;;;1.70;1.60;;;5.70;1.40;;;6.62;100.00;96724.02;618827;226;42537;-73
2022/01/17 12:11:27;;;;;;;1.62;1.35;;;6.10;1.40;;;6.77;100.00;96731.37;647140;216;31642;-77
2022/01/17 12:14:22;;;;;;;2.90;1.60;;;6.10;1.40;;;6.68;100.00;96736.88;646166;212;32435;-75
2022/01/17 12:20:16;;;;;;;1.50;1.40;;;5.60;1.40;;;6.44;100.00;96711.88;617221;226;31914;-79
2022/01/17 12:22:56;;;;;;;1.02;0.80;;;5.60;1.40;;;6.16;100.00;96702.80;647621;216;31511;-79
2022/01/17 12:25:44;;;;;;;2.70;1.40;;;5.40;1.40;;;6.07;100.00;96709.69;646581;212;42148;-76
2022/01/17 12:28:32;;;;;;;2.95;1.45;;;5.40;1.40;;;5.95;100.00;96694.28;619413;222;42531;-78
2022/01/17 12:31:40;;;;;;;0.90;0.60;;;5.30;1.40;;;5.73;100.00;96710.59;646113;216;42397;-76
2022/01/17 12:35:51;;;;;;;1.80;1.40;;;5.00;1.40;;;5.67;100.00;96703.00;647310;212;31601;-76
2022/01/17 12:38:36;;;;;;;1.30;1.10;;;5.00;1.40;;;5.58;100.00;96693.78;646969;212;31530;-73